createdAt,value
2022-07-25T00:01:40.800Z,56.11
2022-07-25T00:04:09.388Z,55.97
2022-07-25T00:06:39.404Z,56.27
2022-07-25T00:09:06.024Z,56.24
2022-07-25T00:11:32.557Z,56.55
2022-07-25T00:13:59.330Z,56.37
2022-07-25T00:16:25.862Z,56.37
2022-07-25T00:18:52.407Z,57.01
2022-07-25T00:21:18.784Z,57.09
2022-07-25T00:23:45.174Z,57.25
2022-07-25T00:26:11.602Z,57.82
2022-07-25T00:28:38.143Z,57.59
2022-07-25T00:31:04.817Z,57.27
2022-07-25T00:33:31.462Z,57.71
2022-07-25T00:35:58.182Z,57.42
2022-07-25T00:38:24.669Z,58.35
2022-07-25T00:40:54.459Z,57.95
2022-07-25T00:43:22.394Z,58.35
2022-07-25T00:45:48.804Z,58.24
2022-07-25T00:48:15.189Z,58.39
2022-07-25T00:50:41.921Z,58.50
2022-07-25T00:53:08.359Z,58.14
2022-07-25T00:55:35.095Z,58.39
2022-07-25T00:58:01.472Z,58.54
2022-07-25T01:00:28.051Z,58.80
2022-07-25T01:02:55.160Z,59.05
2022-07-25T01:05:21.635Z,58.57
2022-07-25T01:07:48.376Z,58.54
2022-07-25T01:10:14.917Z,59.18
2022-07-25T01:12:47.811Z,59.27
2022-07-25T01:15:15.618Z,58.92
2022-07-25T01:17:42.032Z,59.43
2022-07-25T01:20:14.801Z,59.21
2022-07-25T01:22:41.374Z,59.41
2022-07-25T01:25:08.200Z,59.68
2022-07-25T01:27:34.666Z,59.69
2022-07-25T01:30:01.172Z,59.91
2022-07-25T01:32:27.649Z,59.83
2022-07-25T01:34:54.058Z,59.96
2022-07-25T01:37:20.495Z,59.73
2022-07-25T01:39:46.929Z,59.97
2022-07-25T01:42:13.340Z,59.79
2022-07-25T01:44:39.729Z,60.17
2022-07-25T01:47:06.200Z,60.33
2022-07-25T01:49:33.075Z,61.53
2022-07-25T01:52:00.621Z,61.11
2022-07-25T01:54:27.094Z,60.99
2022-07-25T01:56:53.504Z,60.83
2022-07-25T01:59:19.939Z,61.51
2022-07-25T02:01:46.442Z,61.35
2022-07-25T02:04:13.031Z,61.19
2022-07-25T02:06:41.414Z,61.76
2022-07-25T02:09:08.698Z,61.45
2022-07-25T02:11:36.179Z,61.54
2022-07-25T02:14:03.117Z,61.48
2022-07-25T02:16:29.820Z,61.86
2022-07-25T02:18:56.615Z,61.51
2022-07-25T02:21:23.018Z,61.62
2022-07-25T02:23:49.542Z,61.71
2022-07-25T02:26:16.005Z,61.85
2022-07-25T02:28:42.539Z,62.06
2022-07-25T02:31:09.450Z,62.20
2022-07-25T02:33:36.518Z,62.28
2022-07-25T02:36:02.954Z,62.30
2022-07-25T02:38:29.388Z,62.54
2022-07-25T02:40:55.985Z,63.34
2022-07-25T02:43:22.572Z,63.06
2022-07-25T02:45:49.116Z,62.86
2022-07-25T02:48:15.566Z,63.39
2022-07-25T02:50:42.132Z,63.48
2022-07-25T02:53:08.561Z,63.08
2022-07-25T02:55:35.002Z,63.23
2022-07-25T02:58:01.451Z,63.75
2022-07-25T03:00:27.944Z,64.31
2022-07-25T03:02:54.461Z,63.57
2022-07-25T03:05:20.915Z,63.59
2022-07-25T03:07:47.311Z,63.69
2022-07-25T03:10:14.384Z,63.57
2022-07-25T03:12:42.126Z,63.42
2022-07-25T03:15:09.809Z,63.41
2022-07-25T03:17:36.410Z,63.80
2022-07-25T03:20:03.550Z,63.49
2022-07-25T03:22:29.968Z,63.90
2022-07-25T03:24:56.368Z,63.94
2022-07-25T03:27:22.777Z,64.34
2022-07-25T03:29:49.161Z,64.39
2022-07-25T03:32:15.898Z,64.19
2022-07-25T03:34:43.641Z,64.11
2022-07-25T03:37:10.037Z,64.49
2022-07-25T03:39:36.502Z,65.03
2022-07-25T03:42:03.199Z,64.44
2022-07-25T03:44:29.726Z,64.59
2022-07-25T03:46:56.153Z,64.72
2022-07-25T03:49:22.636Z,64.81
2022-07-25T03:51:49.035Z,64.89
2022-07-25T03:54:15.565Z,65.11
2022-07-25T03:56:46.994Z,65.20
2022-07-25T03:59:16.364Z,65.16
2022-07-25T04:01:44.585Z,65.68
2022-07-25T04:04:11.169Z,66.31
2022-07-25T04:06:38.838Z,66.68
2022-07-25T04:09:06.303Z,66.29
2022-07-25T04:11:32.958Z,65.96
2022-07-25T04:13:59.363Z,66.25
2022-07-25T04:16:25.872Z,66.51
2022-07-25T04:18:54.671Z,66.33
2022-07-25T04:21:22.809Z,66.24
2022-07-25T04:23:49.700Z,66.11
2022-07-25T04:26:16.535Z,66.82
2022-07-25T04:28:43.080Z,67.09
2022-07-25T04:31:09.592Z,67.39
2022-07-25T04:33:40.414Z,68.33
2022-07-25T04:36:07.456Z,68.18
2022-07-25T04:38:34.310Z,67.77
2022-07-25T04:41:00.804Z,68.38
2022-07-25T04:43:27.340Z,68.85
2022-07-25T04:45:53.943Z,69.37
2022-07-25T04:48:20.432Z,68.34
2022-07-25T04:50:46.859Z,68.47
2022-07-25T04:53:13.316Z,68.52
2022-07-25T04:55:40.698Z,68.47
2022-07-25T04:58:07.193Z,68.62
2022-07-25T05:00:33.784Z,68.81
2022-07-25T05:03:00.237Z,68.72
2022-07-25T05:05:26.880Z,69.40
2022-07-25T05:07:58.127Z,69.10
2022-07-25T05:10:26.484Z,69.78
2022-07-25T05:12:52.907Z,70.07
2022-07-25T05:15:19.532Z,70.24
2022-07-25T05:17:46.103Z,69.76
2022-07-25T05:20:14.012Z,70.14
2022-07-25T05:22:40.729Z,69.60
2022-07-25T05:25:08.648Z,70.08
2022-07-25T05:27:35.125Z,70.02
2022-07-25T05:30:01.533Z,69.84
2022-07-25T05:32:28.094Z,69.76
2022-07-25T05:34:54.510Z,69.35
2022-07-25T05:37:21.005Z,69.04
2022-07-25T05:39:47.602Z,68.97
2022-07-25T05:42:14.222Z,68.71
2022-07-25T05:44:40.645Z,68.89
2022-07-25T05:47:11.798Z,69.11
2022-07-25T05:49:39.131Z,69.28
2022-07-25T05:52:10.887Z,68.60
2022-07-25T05:54:39.520Z,68.01
2022-07-25T05:57:05.963Z,68.19
2022-07-25T05:59:32.451Z,67.49
2022-07-25T06:01:58.994Z,67.71
2022-07-25T06:04:27.220Z,67.28
2022-07-25T06:06:53.939Z,67.07
2022-07-25T06:09:21.834Z,67.03
2022-07-25T06:11:59.730Z,67.43
2022-07-25T06:14:28.520Z,66.89
2022-07-25T06:16:55.278Z,66.81
2022-07-25T06:19:21.911Z,66.46
2022-07-25T06:21:48.508Z,66.58
2022-07-25T06:24:15.111Z,66.08
2022-07-25T06:26:41.583Z,65.91
2022-07-25T06:29:08.066Z,65.36
2022-07-25T06:31:34.522Z,65.11
2022-07-25T06:34:00.958Z,64.35
2022-07-25T06:36:32.238Z,64.52
2022-07-25T06:38:59.823Z,64.18
2022-07-25T06:41:26.270Z,64.62
2022-07-25T06:43:52.724Z,63.93
2022-07-25T06:46:19.217Z,63.44
2022-07-25T06:48:45.795Z,63.12
2022-07-25T06:51:12.358Z,62.75
2022-07-25T06:53:38.767Z,62.38
2022-07-25T06:56:05.659Z,62.17
2022-07-25T06:58:32.063Z,61.94
2022-07-25T07:01:01.104Z,63.37
2022-07-25T07:03:28.137Z,62.49
2022-07-25T07:05:54.921Z,61.70
2022-07-25T07:08:21.501Z,61.15
2022-07-25T07:10:47.910Z,60.63
2022-07-25T07:13:23.871Z,60.70
2022-07-25T07:15:51.350Z,59.69
2022-07-25T07:18:18.975Z,60.42
2022-07-25T07:20:46.020Z,60.37
2022-07-25T07:23:16.690Z,59.65
2022-07-25T07:25:46.802Z,60.15
2022-07-25T07:28:13.310Z,60.11
2022-07-25T07:31:13.325Z,60.43
2022-07-25T07:33:26.315Z,57.83
2022-07-25T07:35:55.852Z,59.22
2022-07-25T07:38:23.978Z,58.85
2022-07-25T07:40:50.377Z,58.86
2022-07-25T07:43:16.824Z,58.75
2022-07-25T07:45:43.815Z,58.74
2022-07-25T07:48:10.670Z,58.73
2022-07-25T07:50:37.181Z,58.83
2022-07-25T07:53:04.245Z,58.01
2022-07-25T07:55:46.407Z,58.49
2022-07-25T07:58:15.696Z,57.92
2022-07-25T08:00:44.090Z,57.24
2022-07-25T08:03:10.915Z,58.42
2022-07-25T08:05:43.364Z,57.97
2022-07-25T08:08:12.518Z,58.15
2022-07-25T08:10:41.793Z,57.17
2022-07-25T08:13:20.606Z,56.89
2022-07-25T08:15:52.227Z,56.59
2022-07-25T08:18:19.076Z,56.35
2022-07-25T08:20:49.617Z,57.77
2022-07-25T08:23:16.709Z,57.87
2022-07-25T08:25:44.147Z,56.30
2022-07-25T08:28:11.144Z,54.90
2022-07-25T08:30:38.991Z,55.19
2022-07-25T08:33:09.672Z,55.09
2022-07-25T08:35:36.494Z,54.36
2022-07-25T08:38:04.673Z,53.42
2022-07-25T08:40:32.630Z,54.52
2022-07-25T08:42:59.634Z,51.62
2022-07-25T08:45:28.487Z,54.07
2022-07-25T08:47:55.563Z,52.42
2022-07-25T08:50:25.033Z,51.39
2022-07-25T08:53:04.623Z,49.59
2022-07-25T08:55:39.358Z,52.22
2022-07-25T08:58:05.797Z,53.60
2022-07-25T09:00:33.226Z,54.93
2022-07-25T09:03:02.009Z,52.20
2022-07-25T09:05:30.429Z,51.45
2022-07-25T09:08:06.045Z,49.95
2022-07-25T09:10:32.750Z,50.97
2022-07-25T09:13:01.912Z,48.52
2022-07-25T09:15:33.647Z,47.98
2022-07-25T09:18:05.942Z,49.15
2022-07-25T09:20:43.065Z,48.69
2022-07-25T09:23:15.621Z,48.24
2022-07-25T09:25:42.653Z,46.70
2022-07-25T09:28:14.694Z,45.56
2022-07-25T09:30:53.186Z,45.93
2022-07-25T09:33:19.695Z,44.87
2022-07-25T09:35:46.193Z,44.15
2022-07-25T09:38:14.975Z,44.49
2022-07-25T09:40:52.929Z,43.64
2022-07-25T09:43:19.408Z,43.49
2022-07-25T09:45:50.776Z,43.57
2022-07-25T09:48:19.558Z,45.42
2022-07-25T09:50:46.415Z,45.72
2022-07-25T09:53:13.067Z,45.60
2022-07-25T09:55:40.446Z,45.23
2022-07-25T09:58:06.905Z,43.61
2022-07-25T10:00:34.184Z,44.00
2022-07-25T10:03:12.118Z,42.72
2022-07-25T10:06:14.803Z,44.74
2022-07-25T10:08:41.835Z,44.41
2022-07-25T10:11:26.763Z,43.95
2022-07-25T10:13:54.586Z,44.07
2022-07-25T10:16:26.601Z,42.42
2022-07-25T10:18:55.858Z,41.30
2022-07-25T10:21:27.254Z,41.54
2022-07-25T10:24:13.251Z,43.18
2022-07-25T10:26:51.074Z,43.25
2022-07-25T10:29:17.600Z,44.29
2022-07-25T10:31:51.464Z,44.01
2022-07-25T10:34:30.205Z,44.54
2022-07-25T10:36:57.166Z,43.59
2022-07-25T10:39:23.971Z,44.18
2022-07-25T10:41:56.087Z,44.59
2022-07-25T10:44:22.792Z,45.73
2022-07-25T10:46:50.204Z,46.36
2022-07-25T10:49:32.156Z,45.55
2022-07-25T10:52:01.231Z,44.27
2022-07-25T10:54:33.678Z,45.21
2022-07-25T10:57:01.017Z,45.35
2022-07-25T10:59:38.788Z,45.15
2022-07-25T11:02:16.388Z,46.45
2022-07-25T11:04:57.879Z,45.58
2022-07-25T11:07:24.516Z,44.80
2022-07-25T11:10:02.151Z,44.68
2022-07-25T11:12:28.899Z,44.57
2022-07-25T11:15:04.293Z,45.17
2022-07-25T11:17:30.801Z,44.46
2022-07-25T11:20:01.277Z,44.17
2022-07-25T11:22:28.988Z,41.85
2022-07-25T11:24:57.141Z,41.65
2022-07-25T11:27:32.793Z,42.73
2022-07-25T11:30:08.732Z,42.18
2022-07-25T11:32:46.937Z,42.66
2022-07-25T11:35:14.728Z,44.14
2022-07-25T11:37:48.469Z,43.63
2022-07-25T11:40:18.806Z,43.30
2022-07-25T11:42:47.958Z,43.36
2022-07-25T11:45:18.594Z,43.42
2022-07-25T11:47:45.287Z,43.28
2022-07-25T11:50:14.873Z,42.62
2022-07-25T11:52:43.261Z,41.67
2022-07-25T11:55:13.293Z,43.40
2022-07-25T11:57:45.732Z,44.43
2022-07-25T12:00:18.455Z,44.08
2022-07-25T12:02:45.694Z,43.65
2022-07-25T12:05:14.680Z,43.90
2022-07-25T12:07:44.789Z,44.73
2022-07-25T12:10:16.917Z,45.45
2022-07-25T12:12:50.836Z,45.94
2022-07-25T12:15:21.024Z,46.32
2022-07-25T12:17:48.878Z,46.92
2022-07-25T12:20:17.718Z,47.46
2022-07-25T12:22:44.821Z,47.92
2022-07-25T12:25:12.442Z,47.92
2022-07-25T12:27:39.619Z,48.69
2022-07-25T12:30:07.508Z,49.37
2022-07-25T12:32:34.682Z,49.87
2022-07-25T12:35:01.866Z,50.26
2022-07-25T12:37:28.620Z,50.61
2022-07-25T12:39:55.872Z,50.38
2022-07-25T12:42:22.922Z,50.52
2022-07-25T12:44:49.756Z,50.95
2022-07-25T12:47:16.353Z,51.36
2022-07-25T12:49:42.828Z,51.56
2022-07-25T12:52:09.780Z,50.54
2022-07-25T12:54:36.350Z,49.75
2022-07-25T12:57:02.897Z,49.46
2022-07-25T12:59:29.325Z,48.02
2022-07-25T13:01:56.249Z,47.74
2022-07-25T13:04:22.877Z,47.73
2022-07-25T13:06:49.312Z,47.51
2022-07-25T13:09:15.784Z,44.17
2022-07-25T13:11:42.343Z,45.05
2022-07-25T13:14:08.867Z,46.02
2022-07-25T13:16:37.742Z,46.88
2022-07-25T13:19:05.672Z,46.46
2022-07-25T13:21:32.197Z,46.57
2022-07-25T13:23:58.702Z,46.07
2022-07-25T13:26:25.176Z,44.34
2022-07-25T13:28:54.292Z,43.56
2022-07-25T13:31:24.517Z,44.35
2022-07-25T13:33:51.356Z,44.15
2022-07-25T13:36:18.348Z,44.59
2022-07-25T13:38:46.546Z,44.40
2022-07-25T13:41:13.867Z,44.63
2022-07-25T13:43:42.923Z,42.35
2022-07-25T13:46:09.714Z,42.35
2022-07-25T13:48:36.962Z,43.74
2022-07-25T13:51:03.711Z,44.57
2022-07-25T13:53:30.739Z,44.73
2022-07-25T13:55:58.680Z,44.00
2022-07-25T13:58:25.532Z,44.33
2022-07-25T14:00:52.162Z,44.96
2022-07-25T14:03:19.716Z,43.14
2022-07-25T14:05:46.315Z,43.67
2022-07-25T14:08:12.961Z,43.52
2022-07-25T14:10:39.362Z,42.61
2022-07-25T14:13:05.853Z,42.68
2022-07-25T14:15:32.315Z,41.94
2022-07-25T14:17:58.743Z,42.01
2022-07-25T14:20:25.364Z,42.70
2022-07-25T14:22:51.876Z,42.75
2022-07-25T14:25:18.314Z,42.37
2022-07-25T14:27:45.148Z,42.51
2022-07-25T14:30:12.527Z,42.01
2022-07-25T14:32:39.032Z,41.94
2022-07-25T14:35:06.114Z,42.32
2022-07-25T14:37:34.235Z,42.89
2022-07-25T14:40:02.571Z,42.90
2022-07-25T14:42:29.374Z,43.74
2022-07-25T14:44:55.857Z,42.82
2022-07-25T14:47:22.715Z,43.76
2022-07-25T14:49:53.150Z,43.59
2022-07-25T14:52:19.638Z,42.98
2022-07-25T14:54:46.031Z,42.89
2022-07-25T14:57:12.551Z,42.78
2022-07-25T14:59:39.039Z,43.10
2022-07-25T15:02:05.463Z,43.84
2022-07-25T15:04:32.139Z,44.48
2022-07-25T15:06:58.667Z,45.10
2022-07-25T15:09:25.034Z,45.06
2022-07-25T15:11:51.487Z,43.38
2022-07-25T15:14:18.098Z,44.11
2022-07-25T15:16:44.769Z,44.88
2022-07-25T15:19:17.631Z,44.38
2022-07-25T15:21:45.046Z,44.25
2022-07-25T15:24:11.744Z,44.04
2022-07-25T15:26:38.367Z,45.46
2022-07-25T15:29:10.454Z,46.50
2022-07-25T15:31:37.568Z,47.32
2022-07-25T15:34:04.220Z,46.87
2022-07-25T15:36:30.694Z,46.77
2022-07-25T15:38:57.137Z,46.56
2022-07-25T15:41:23.643Z,46.87
2022-07-25T15:43:50.044Z,47.31
2022-07-25T15:46:16.920Z,47.17
2022-07-25T15:48:44.272Z,47.46
2022-07-25T15:51:10.998Z,47.25
2022-07-25T15:53:37.428Z,47.27
2022-07-25T15:56:04.449Z,47.28
2022-07-25T15:58:31.186Z,47.31
2022-07-25T16:00:57.649Z,47.39
2022-07-25T16:03:24.195Z,47.57
2022-07-25T16:05:50.724Z,47.96
2022-07-25T16:08:17.384Z,47.85
2022-07-25T16:10:43.866Z,47.86
2022-07-25T16:13:10.292Z,48.11
2022-07-25T16:15:36.883Z,48.22
2022-07-25T16:18:03.495Z,48.48
2022-07-25T16:20:33.777Z,48.60
2022-07-25T16:23:00.967Z,49.15
2022-07-25T16:25:28.384Z,49.38
2022-07-25T16:27:55.751Z,49.52
2022-07-25T16:30:22.860Z,49.20
2022-07-25T16:32:49.525Z,49.38
2022-07-25T16:35:16.096Z,49.60
2022-07-25T16:37:43.230Z,50.13
2022-07-25T16:40:10.369Z,50.52
2022-07-25T16:42:37.011Z,50.86
2022-07-25T16:45:05.032Z,50.80
2022-07-25T16:47:31.788Z,50.67
2022-07-25T16:49:58.237Z,50.96
2022-07-25T16:52:24.961Z,50.74
2022-07-25T16:54:51.860Z,51.48
2022-07-25T16:57:18.352Z,51.53
2022-07-25T16:59:53.112Z,51.13
2022-07-25T17:02:19.579Z,51.58
2022-07-25T17:04:46.589Z,51.43
2022-07-25T17:07:13.211Z,51.16
2022-07-25T17:09:40.587Z,50.91
2022-07-25T17:12:07.233Z,50.79
2022-07-25T17:14:34.390Z,50.52
2022-07-25T17:17:00.813Z,49.96
2022-07-25T17:19:27.200Z,49.86
2022-07-25T17:21:53.587Z,49.62
2022-07-25T17:24:19.979Z,49.15
2022-07-25T17:26:46.405Z,49.59
2022-07-25T17:29:13.629Z,49.36
2022-07-25T17:31:40.361Z,49.44
2022-07-25T17:34:06.984Z,49.49
2022-07-25T17:36:33.908Z,49.91
2022-07-25T17:39:00.748Z,49.83
2022-07-25T17:41:27.271Z,50.01
2022-07-25T17:43:53.688Z,50.71
2022-07-25T17:46:20.148Z,50.62
2022-07-25T17:48:46.837Z,50.93
2022-07-25T17:51:13.314Z,51.04
2022-07-25T17:53:39.820Z,51.53
2022-07-25T17:56:08.317Z,51.44
2022-07-25T17:58:34.864Z,51.95
2022-07-25T18:01:02.580Z,52.06
2022-07-25T18:03:30.373Z,52.15
2022-07-25T18:05:56.894Z,52.49
2022-07-25T18:08:23.415Z,52.80
2022-07-25T18:10:50.291Z,52.88
2022-07-25T18:13:18.002Z,52.73
2022-07-25T18:15:45.323Z,52.75
2022-07-25T18:18:15.660Z,52.99
2022-07-25T18:20:46.901Z,53.36
2022-07-25T18:23:13.419Z,53.21
2022-07-25T18:25:40.656Z,53.70
2022-07-25T18:28:07.537Z,53.69
2022-07-25T18:30:33.982Z,54.22
2022-07-25T18:33:00.429Z,53.91
2022-07-25T18:35:26.814Z,54.50
2022-07-25T18:37:53.251Z,54.45
2022-07-25T18:40:20.748Z,54.70
2022-07-25T18:42:47.565Z,55.18
2022-07-25T18:45:14.173Z,55.15
2022-07-25T18:47:40.858Z,55.04
2022-07-25T18:50:08.071Z,55.09
2022-07-25T18:52:37.590Z,55.29
2022-07-25T18:55:06.243Z,55.75
2022-07-25T18:57:33.650Z,55.59
2022-07-25T19:00:03.142Z,55.58
2022-07-25T19:02:29.950Z,55.86
2022-07-25T19:04:56.515Z,55.86
2022-07-25T19:07:23.348Z,55.74
2022-07-25T19:09:49.780Z,55.71
2022-07-25T19:12:16.250Z,55.73
2022-07-25T19:14:42.800Z,56.31
2022-07-25T19:17:09.377Z,56.43
2022-07-25T19:19:35.823Z,56.25
2022-07-25T19:22:02.498Z,56.70
2022-07-25T19:24:29.867Z,56.63
2022-07-25T19:26:57.199Z,56.66
2022-07-25T19:29:23.926Z,56.52
2022-07-25T19:31:50.409Z,56.81
2022-07-25T19:34:16.933Z,56.89
2022-07-25T19:36:45.804Z,57.26
2022-07-25T19:39:13.072Z,57.36
2022-07-25T19:41:43.443Z,57.62
2022-07-25T19:44:13.169Z,57.72
2022-07-25T19:46:39.808Z,57.33
2022-07-25T19:49:06.460Z,57.35
2022-07-25T19:51:33.273Z,58.00
2022-07-25T19:54:03.368Z,58.26
2022-07-25T19:56:31.225Z,58.64
2022-07-25T19:58:58.024Z,58.45
2022-07-25T20:01:24.628Z,58.68
2022-07-25T20:03:51.092Z,59.12
2022-07-25T20:06:20.454Z,59.35
2022-07-25T20:08:47.737Z,59.68
2022-07-25T20:11:14.518Z,59.64
2022-07-25T20:13:41.026Z,59.74
2022-07-25T20:16:07.836Z,59.70
2022-07-25T20:18:34.258Z,59.78
2022-07-25T20:21:00.965Z,59.64
2022-07-25T20:23:27.483Z,59.82
2022-07-25T20:25:54.023Z,60.16
2022-07-25T20:28:20.774Z,60.14
2022-07-25T20:30:47.432Z,60.13
2022-07-25T20:33:14.008Z,59.82
2022-07-25T20:35:40.500Z,59.70
2022-07-25T20:38:09.751Z,59.54
2022-07-25T20:40:39.195Z,59.83
2022-07-25T20:43:08.308Z,60.03
2022-07-25T20:45:34.795Z,60.28
2022-07-25T20:48:01.258Z,60.16
2022-07-25T20:50:27.715Z,60.31
2022-07-25T20:52:54.168Z,60.75
2022-07-25T20:55:23.371Z,60.45
2022-07-25T20:57:50.868Z,60.20
2022-07-25T21:00:18.054Z,60.69
2022-07-25T21:02:44.556Z,60.64
2022-07-25T21:05:11.077Z,60.63
2022-07-25T21:07:37.638Z,60.24
2022-07-25T21:10:04.639Z,60.43
2022-07-25T21:12:32.952Z,60.41
2022-07-25T21:15:01.246Z,60.99
2022-07-25T21:17:28.053Z,60.98
2022-07-25T21:19:54.701Z,60.98
2022-07-25T21:22:21.230Z,60.94
2022-07-25T21:24:49.458Z,61.37
2022-07-25T21:27:17.173Z,60.74
2022-07-25T21:29:43.751Z,60.40
2022-07-25T21:32:13.511Z,60.70
2022-07-25T21:34:41.247Z,59.98
2022-07-25T21:37:07.866Z,59.50
2022-07-25T21:39:34.271Z,58.89
2022-07-25T21:42:01.234Z,58.60
2022-07-25T21:44:27.692Z,58.23
2022-07-25T21:46:54.121Z,58.49
2022-07-25T21:49:41.201Z,58.44
2022-07-25T21:52:08.589Z,58.38
2022-07-25T21:54:40.662Z,58.46
2022-07-25T21:57:07.134Z,58.27
2022-07-25T21:59:43.853Z,58.13
2022-07-25T22:02:10.347Z,58.48
2022-07-25T22:04:37.118Z,58.62
2022-07-25T22:07:03.769Z,58.85
2022-07-25T22:09:30.210Z,58.97
2022-07-25T22:11:57.844Z,59.24
2022-07-25T22:14:24.389Z,59.13
2022-07-25T22:16:50.887Z,58.91
2022-07-25T22:19:20.859Z,58.91
2022-07-25T22:21:48.958Z,59.12
2022-07-25T22:24:15.371Z,59.11
2022-07-25T22:26:41.886Z,58.95
2022-07-25T22:29:08.832Z,58.79
2022-07-25T22:31:35.804Z,58.63
2022-07-25T22:34:02.290Z,58.61
2022-07-25T22:36:28.781Z,58.91
2022-07-25T22:38:55.559Z,58.61
2022-07-25T22:41:21.986Z,59.02
2022-07-25T22:43:52.451Z,58.96
2022-07-25T22:46:23.639Z,58.94
2022-07-25T22:48:50.198Z,59.11
2022-07-25T22:51:16.718Z,59.04
2022-07-25T22:53:43.144Z,59.06
2022-07-25T22:56:09.689Z,59.13
2022-07-25T22:58:36.082Z,59.25
2022-07-25T23:01:02.547Z,59.14
2022-07-25T23:03:32.880Z,59.40
2022-07-25T23:05:59.722Z,59.38
2022-07-25T23:08:26.111Z,59.05
2022-07-25T23:10:52.683Z,59.24
2022-07-25T23:13:19.407Z,58.98
2022-07-25T23:15:50.347Z,59.18
2022-07-25T23:18:18.059Z,59.09
2022-07-25T23:20:44.439Z,58.89
2022-07-25T23:23:10.877Z,58.92
2022-07-25T23:25:37.320Z,58.99
2022-07-25T23:28:04.007Z,58.59
2022-07-25T23:30:30.424Z,58.36
2022-07-25T23:32:56.807Z,58.79
2022-07-25T23:35:23.363Z,59.00
2022-07-25T23:37:49.753Z,59.02
2022-07-25T23:40:16.196Z,59.71
2022-07-25T23:42:42.651Z,59.47
2022-07-25T23:45:10.443Z,60.42
2022-07-25T23:47:39.653Z,59.92
2022-07-25T23:50:08.520Z,59.87
2022-07-25T23:52:35.022Z,59.48
2022-07-25T23:55:01.560Z,60.04
2022-07-25T23:57:27.997Z,59.90
2022-07-25T23:59:54.358Z,60.52
